Air Navigation Services of Czech Republic
Airport: LKPR Updated:  25.03.2019 21:30:07  UTC
 METAR LKPR 25.03. 21:30 ...
METAR LKPR 252130Z 32010KT 9999 SCT016 BKN038 03/M00 Q1020 NOSIG RMK REG QNH 1014=
 TAF LKPR 25.03. 17:00 ...
TAF LKPR 251700Z 2518/2700 30010KT 9999 BKN035      TEMPO 2518/2600 4000 SHRASN BKN020      PROB30 TEMPO 2518/2520 30018G28KT 2500 SHRASN SCT009TCU      TEMPO 2609/2619 31016G30KT      TEMPO 2618/2700 -RA BKN015=